sensor_id;sensor_type;location;lat;lon;timestamp;P1;durP1;ratioP1;P2;durP2;ratioP2
21084;SDS011;34247;50.064;19.970;2023-03-30T00:00:45;4.90;;;2.85;;
21084;SDS011;34247;50.064;19.970;2023-03-30T00:01:49;7.55;;;2.80;;
21084;SDS011;34247;50.064;19.970;2023-03-30T00:02:53;5.65;;;3.13;;
21084;SDS011;34247;50.064;19.970;2023-03-30T00:03:57;5.30;;;3.35;;
21084;SDS011;34247;50.064;19.970;2023-03-30T00:05:02;5.20;;;2.65;;
21084;SDS011;34247;50.064;19.970;2023-03-30T00:06:09;4.05;;;3.35;;
21084;SDS011;34247;50.064;19.970;2023-03-30T00:07:17;5.18;;;3.75;;
21084;SDS011;34247;50.064;19.970;2023-03-30T00:08:21;5.35;;;3.17;;
21084;SDS011;34247;50.064;19.970;2023-03-30T00:09:30;4.65;;;2.67;;
21084;SDS011;34247;50.064;19.970;2023-03-30T00:10:35;4.13;;;2.55;;
21084;SDS011;34247;50.064;19.970;2023-03-30T00:11:45;5.75;;;3.45;;
21084;SDS011;34247;50.064;19.970;2023-03-30T00:12:50;2.70;;;2.50;;
21084;SDS011;34247;50.064;19.970;2023-03-30T00:13:54;2.90;;;1.98;;
21084;SDS011;34247;50.064;19.970;2023-03-30T00:14:59;4.85;;;2.67;;
21084;SDS011;34247;50.064;19.970;2023-03-30T00:16:05;5.15;;;2.35;;
21084;SDS011;34247;50.064;19.970;2023-03-30T00:17:15;4.43;;;3.22;;
21084;SDS011;34247;50.064;19.970;2023-03-30T00:18:19;7.35;;;2.78;;
21084;SDS011;34247;50.064;19.970;2023-03-30T00:19:23;10.63;;;3.58;;
21084;SDS011;34247;50.064;19.970;2023-03-30T00:20:28;3.42;;;2.75;;
21084;SDS011;34247;50.064;19.970;2023-03-30T00:21:35;3.55;;;2.30;;
21084;SDS011;34247;50.064;19.970;2023-03-30T00:22:40;5.03;;;2.53;;
21084;SDS011;34247;50.064;19.970;2023-03-30T00:23:45;5.40;;;3.40;;
21084;SDS011;34247;50.064;19.970;2023-03-30T00:24:50;4.93;;;3.33;;
21084;SDS011;34247;50.064;19.970;2023-03-30T00:25:53;6.43;;;2.88;;
21084;SDS011;34247;50.064;19.970;2023-03-30T00:26:58;4.95;;;3.05;;
21084;SDS011;34247;50.064;19.970;2023-03-30T00:28:02;8.15;;;3.38;;
21084;SDS011;34247;50.064;19.970;2023-03-30T00:29:09;6.25;;;3.15;;
21084;SDS011;34247;50.064;19.970;2023-03-30T00:30:14;3.92;;;2.88;;
21084;SDS011;34247;50.064;19.970;2023-03-30T00:31:20;4.95;;;2.92;;
21084;SDS011;34247;50.064;19.970;2023-03-30T00:32:24;6.63;;;3.58;;
21084;SDS011;34247;50.064;19.970;2023-03-30T00:33:28;5.03;;;3.22;;
21084;SDS011;34247;50.064;19.970;2023-03-30T00:34:43;2.92;;;2.08;;
21084;SDS011;34247;50.064;19.970;2023-03-30T00:35:54;5.80;;;3.33;;
21084;SDS011;34247;50.064;19.970;2023-03-30T00:37:00;7.32;;;2.88;;
21084;SDS011;34247;50.064;19.970;2023-03-30T00:38:06;2.33;;;2.13;;
21084;SDS011;34247;50.064;19.970;2023-03-30T00:39:14;7.40;;;2.35;;
21084;SDS011;34247;50.064;19.970;2023-03-30T00:40:21;2.10;;;1.90;;
21084;SDS011;34247;50.064;19.970;2023-03-30T00:41:25;4.63;;;2.50;;
21084;SDS011;34247;50.064;19.970;2023-03-30T00:42:30;2.38;;;2.17;;
21084;SDS011;34247;50.064;19.970;2023-03-30T00:43:34;2.92;;;2.70;;
21084;SDS011;34247;50.064;19.970;2023-03-30T00:46:03;2.00;;;1.90;;
21084;SDS011;34247;50.064;19.970;2023-03-30T00:47:12;4.28;;;3.22;;
21084;SDS011;34247;50.064;19.970;2023-03-30T00:48:22;3.45;;;2.65;;
21084;SDS011;34247;50.064;19.970;2023-03-30T00:49:36;6.47;;;3.22;;
21084;SDS011;34247;50.064;19.970;2023-03-30T00:50:44;4.55;;;2.42;;
21084;SDS011;34247;50.064;19.970;2023-03-30T00:51:56;3.83;;;2.70;;
21084;SDS011;34247;50.064;19.970;2023-03-30T00:53:01;2.92;;;2.53;;
21084;SDS011;34247;50.064;19.970;2023-03-30T00:54:18;7.07;;;3.58;;
21084;SDS011;34247;50.064;19.970;2023-03-30T00:55:23;5.40;;;2.50;;
21084;SDS011;34247;50.064;19.970;2023-03-30T00:56:33;5.65;;;2.72;;
21084;SDS011;34247;50.064;19.970;2023-03-30T00:57:38;3.10;;;2.65;;
21084;SDS011;34247;50.064;19.970;2023-03-30T00:58:44;10.82;;;3.30;;
21084;SDS011;34247;50.064;19.970;2023-03-30T00:59:49;2.83;;;2.50;;
21084;SDS011;34247;50.064;19.970;2023-03-30T01:00:55;4.20;;;3.15;;
21084;SDS011;34247;50.064;19.970;2023-03-30T01:02:02;2.53;;;2.28;;
21084;SDS011;34247;50.064;19.970;2023-03-30T01:03:08;3.78;;;2.95;;
21084;SDS011;34247;50.064;19.970;2023-03-30T01:04:40;3.88;;;2.55;;
21084;SDS011;34247;50.064;19.970;2023-03-30T01:05:43;3.80;;;3.10;;
21084;SDS011;34247;50.064;19.970;2023-03-30T01:06:48;5.05;;;2.67;;
21084;SDS011;34247;50.064;19.970;2023-03-30T01:07:54;3.70;;;2.75;;
21084;SDS011;34247;50.064;19.970;2023-03-30T01:09:03;6.97;;;3.03;;
21084;SDS011;34247;50.064;19.970;2023-03-30T01:10:14;3.45;;;2.90;;
21084;SDS011;34247;50.064;19.970;2023-03-30T01:11:19;8.40;;;2.78;;
21084;SDS011;34247;50.064;19.970;2023-03-30T01:12:23;4.70;;;2.67;;
21084;SDS011;34247;50.064;19.970;2023-03-30T01:13:28;6.10;;;3.50;;
21084;SDS011;34247;50.064;19.970;2023-03-30T01:14:36;4.82;;;2.72;;
21084;SDS011;34247;50.064;19.970;2023-03-30T01:15:44;4.28;;;2.10;;
21084;SDS011;34247;50.064;19.970;2023-03-30T01:17:34;6.10;;;2.58;;
21084;SDS011;34247;50.064;19.970;2023-03-30T01:22:16;4.78;;;2.33;;
21084;SDS011;34247;50.064;19.970;2023-03-30T01:25:37;3.75;;;2.20;;
21084;SDS011;34247;50.064;19.970;2023-03-30T01:29:13;3.97;;;2.17;;
21084;SDS011;34247;50.064;19.970;2023-03-30T01:30:49;2.25;;;2.08;;
21084;SDS011;34247;50.064;19.970;2023-03-30T01:40:32;5.55;;;2.17;;
21084;SDS011;34247;50.064;19.970;2023-03-30T01:41:57;3.92;;;2.85;;
21084;SDS011;34247;50.064;19.970;2023-03-30T01:43:33;2.97;;;2.08;;
21084;SDS011;34247;50.064;19.970;2023-03-30T01:46:44;3.55;;;2.42;;
21084;SDS011;34247;50.064;19.970;2023-03-30T01:48:00;4.68;;;2.30;;
21084;SDS011;34247;50.064;19.970;2023-03-30T01:49:36;4.68;;;3.10;;
21084;SDS011;34247;50.064;19.970;2023-03-30T01:50:52;3.65;;;2.30;;
21084;SDS011;34247;50.064;19.970;2023-03-30T01:52:21;2.45;;;2.25;;
21084;SDS011;34247;50.064;19.970;2023-03-30T01:53:53;4.25;;;2.55;;
21084;SDS011;34247;50.064;19.970;2023-03-30T01:55:11;4.78;;;2.78;;
21084;SDS011;34247;50.064;19.970;2023-03-30T01:56:24;3.47;;;2.70;;
21084;SDS011;34247;50.064;19.970;2023-03-30T01:59:30;3.45;;;2.20;;
21084;SDS011;34247;50.064;19.970;2023-03-30T02:00:49;3.50;;;2.65;;
21084;SDS011;34247;50.064;19.970;2023-03-30T02:01:56;2.58;;;2.13;;
21084;SDS011;34247;50.064;19.970;2023-03-30T02:03:14;4.63;;;2.70;;
21084;SDS011;34247;50.064;19.970;2023-03-30T02:04:32;7.40;;;2.80;;
21084;SDS011;34247;50.064;19.970;2023-03-30T02:05:44;3.17;;;2.42;;
21084;SDS011;34247;50.064;19.970;2023-03-30T02:06:55;3.95;;;2.78;;
21084;SDS011;34247;50.064;19.970;2023-03-30T02:08:17;3.88;;;2.30;;
21084;SDS011;34247;50.064;19.970;2023-03-30T02:09:27;4.32;;;2.63;;
21084;SDS011;34247;50.064;19.970;2023-03-30T02:10:33;4.03;;;2.13;;
21084;SDS011;34247;50.064;19.970;2023-03-30T02:11:41;3.17;;;2.88;;
21084;SDS011;34247;50.064;19.970;2023-03-30T02:12:51;2.45;;;2.00;;
21084;SDS011;34247;50.064;19.970;2023-03-30T02:14:01;3.47;;;2.70;;
21084;SDS011;34247;50.064;19.970;2023-03-30T02:15:13;4.20;;;2.60;;
21084;SDS011;34247;50.064;19.970;2023-03-30T02:16:22;2.75;;;2.55;;
21084;SDS011;34247;50.064;19.970;2023-03-30T02:17:36;3.47;;;2.70;;
21084;SDS011;34247;50.064;19.970;2023-03-30T02:18:40;3.00;;;2.03;;
21084;SDS011;34247;50.064;19.970;2023-03-30T02:19:44;4.55;;;2.92;;
21084;SDS011;34247;50.064;19.970;2023-03-30T02:20:49;5.30;;;2.53;;
21084;SDS011;34247;50.064;19.970;2023-03-30T02:21:53;4.80;;;2.38;;
21084;SDS011;34247;50.064;19.970;2023-03-30T02:22:56;2.15;;;1.90;;
21084;SDS011;34247;50.064;19.970;2023-03-30T02:24:02;5.45;;;2.63;;
21084;SDS011;34247;50.064;19.970;2023-03-30T02:25:19;3.03;;;2.80;;
21084;SDS011;34247;50.064;19.970;2023-03-30T02:26:25;3.53;;;2.92;;
21084;SDS011;34247;50.064;19.970;2023-03-30T02:27:31;5.90;;;3.30;;
21084;SDS011;34247;50.064;19.970;2023-03-30T02:28:36;4.97;;;3.13;;
21084;SDS011;34247;50.064;19.970;2023-03-30T02:29:42;9.13;;;3.88;;
21084;SDS011;34247;50.064;19.970;2023-03-30T02:30:47;4.53;;;3.45;;
21084;SDS011;34247;50.064;19.970;2023-03-30T02:31:52;5.40;;;3.28;;
21084;SDS011;34247;50.064;19.970;2023-03-30T02:33:00;5.68;;;3.38;;
21084;SDS011;34247;50.064;19.970;2023-03-30T02:34:20;7.00;;;4.05;;
21084;SDS011;34247;50.064;19.970;2023-03-30T02:44:44;9.43;;;3.35;;
21084;SDS011;34247;50.064;19.970;2023-03-30T02:48:21;8.07;;;3.80;;
21084;SDS011;34247;50.064;19.970;2023-03-30T02:51:25;7.15;;;3.00;;
21084;SDS011;34247;50.064;19.970;2023-03-30T02:52:48;7.70;;;3.33;;
21084;SDS011;34247;50.064;19.970;2023-03-30T02:56:05;8.05;;;3.78;;
21084;SDS011;34247;50.064;19.970;2023-03-30T02:59:13;11.40;;;4.28;;
21084;SDS011;34247;50.064;19.970;2023-03-30T03:00:48;14.52;;;4.28;;
21084;SDS011;34247;50.064;19.970;2023-03-30T03:02:16;5.72;;;2.72;;
21084;SDS011;34247;50.064;19.970;2023-03-30T03:03:36;9.48;;;4.53;;
21084;SDS011;34247;50.064;19.970;2023-03-30T03:04:47;7.40;;;4.38;;
21084;SDS011;34247;50.064;19.970;2023-03-30T03:05:55;13.05;;;5.53;;
21084;SDS011;34247;50.064;19.970;2023-03-30T03:07:10;11.45;;;4.97;;
21084;SDS011;34247;50.064;19.970;2023-03-30T03:08:16;11.07;;;4.93;;
21084;SDS011;34247;50.064;19.970;2023-03-30T03:09:21;14.00;;;5.70;;
21084;SDS011;34247;50.064;19.970;2023-03-30T03:10:28;8.75;;;4.32;;
21084;SDS011;34247;50.064;19.970;2023-03-30T03:11:32;15.85;;;5.35;;
21084;SDS011;34247;50.064;19.970;2023-03-30T03:12:36;15.68;;;4.53;;
21084;SDS011;34247;50.064;19.970;2023-03-30T03:13:40;14.45;;;5.25;;
21084;SDS011;34247;50.064;19.970;2023-03-30T03:14:44;10.85;;;5.15;;
21084;SDS011;34247;50.064;19.970;2023-03-30T03:15:49;6.70;;;4.32;;
21084;SDS011;34247;50.064;19.970;2023-03-30T03:16:58;9.93;;;5.20;;
21084;SDS011;34247;50.064;19.970;2023-03-30T03:18:02;5.55;;;4.10;;
21084;SDS011;34247;50.064;19.970;2023-03-30T03:19:10;6.25;;;4.30;;
21084;SDS011;34247;50.064;19.970;2023-03-30T03:20:13;6.60;;;3.65;;
21084;SDS011;34247;50.064;19.970;2023-03-30T03:21:22;8.20;;;4.25;;
21084;SDS011;34247;50.064;19.970;2023-03-30T03:22:26;15.70;;;4.72;;
21084;SDS011;34247;50.064;19.970;2023-03-30T03:23:30;11.73;;;4.18;;
21084;SDS011;34247;50.064;19.970;2023-03-30T03:24:35;12.25;;;4.72;;
21084;SDS011;34247;50.064;19.970;2023-03-30T03:25:41;13.13;;;5.28;;
21084;SDS011;34247;50.064;19.970;2023-03-30T03:26:45;9.65;;;4.88;;
21084;SDS011;34247;50.064;19.970;2023-03-30T03:27:52;8.18;;;3.72;;
21084;SDS011;34247;50.064;19.970;2023-03-30T03:28:56;13.52;;;4.97;;
21084;SDS011;34247;50.064;19.970;2023-03-30T03:29:59;8.63;;;4.60;;
21084;SDS011;34247;50.064;19.970;2023-03-30T03:31:06;12.68;;;4.90;;
21084;SDS011;34247;50.064;19.970;2023-03-30T03:32:15;13.30;;;5.43;;
21084;SDS011;34247;50.064;19.970;2023-03-30T03:33:19;8.75;;;4.72;;
21084;SDS011;34247;50.064;19.970;2023-03-30T03:34:24;19.58;;;4.93;;
21084;SDS011;34247;50.064;19.970;2023-03-30T03:35:33;8.10;;;4.65;;
21084;SDS011;34247;50.064;19.970;2023-03-30T03:36:41;8.05;;;4.07;;
21084;SDS011;34247;50.064;19.970;2023-03-30T03:37:45;12.18;;;6.10;;
21084;SDS011;34247;50.064;19.970;2023-03-30T03:38:49;10.85;;;5.28;;
21084;SDS011;34247;50.064;19.970;2023-03-30T03:39:54;20.35;;;5.00;;
21084;SDS011;34247;50.064;19.970;2023-03-30T03:40:58;12.40;;;5.72;;
21084;SDS011;34247;50.064;19.970;2023-03-30T03:42:03;10.73;;;4.57;;
21084;SDS011;34247;50.064;19.970;2023-03-30T03:43:11;10.30;;;5.90;;
21084;SDS011;34247;50.064;19.970;2023-03-30T03:44:15;12.48;;;4.60;;
21084;SDS011;34247;50.064;19.970;2023-03-30T03:45:19;23.10;;;6.00;;
21084;SDS011;34247;50.064;19.970;2023-03-30T03:46:23;12.30;;;5.28;;
21084;SDS011;34247;50.064;19.970;2023-03-30T03:47:27;7.25;;;4.00;;
21084;SDS011;34247;50.064;19.970;2023-03-30T03:48:31;8.45;;;4.70;;
21084;SDS011;34247;50.064;19.970;2023-03-30T03:49:35;7.32;;;4.40;;
21084;SDS011;34247;50.064;19.970;2023-03-30T03:50:39;9.52;;;6.25;;
21084;SDS011;34247;50.064;19.970;2023-03-30T03:51:44;8.73;;;4.63;;
21084;SDS011;34247;50.064;19.970;2023-03-30T03:52:48;11.85;;;5.70;;
21084;SDS011;34247;50.064;19.970;2023-03-30T03:53:52;10.45;;;4.72;;
21084;SDS011;34247;50.064;19.970;2023-03-30T03:54:56;5.22;;;4.68;;
21084;SDS011;34247;50.064;19.970;2023-03-30T03:56:02;7.72;;;4.25;;
21084;SDS011;34247;50.064;19.970;2023-03-30T03:57:08;13.95;;;6.15;;
21084;SDS011;34247;50.064;19.970;2023-03-30T03:58:13;5.50;;;4.32;;
21084;SDS011;34247;50.064;19.970;2023-03-30T03:59:18;25.98;;;6.45;;
21084;SDS011;34247;50.064;19.970;2023-03-30T04:00:22;10.07;;;5.85;;
21084;SDS011;34247;50.064;19.970;2023-03-30T04:01:26;7.90;;;4.63;;
21084;SDS011;34247;50.064;19.970;2023-03-30T04:02:31;9.95;;;4.50;;
21084;SDS011;34247;50.064;19.970;2023-03-30T04:03:35;9.35;;;5.35;;
21084;SDS011;34247;50.064;19.970;2023-03-30T04:04:39;11.90;;;5.07;;
21084;SDS011;34247;50.064;19.970;2023-03-30T04:05:43;10.90;;;5.20;;
21084;SDS011;34247;50.064;19.970;2023-03-30T04:06:47;10.75;;;5.68;;
21084;SDS011;34247;50.064;19.970;2023-03-30T04:07:51;11.85;;;5.95;;
21084;SDS011;34247;50.064;19.970;2023-03-30T04:08:55;8.02;;;5.80;;
21084;SDS011;34247;50.064;19.970;2023-03-30T04:09:59;13.68;;;5.55;;
21084;SDS011;34247;50.064;19.970;2023-03-30T04:11:04;13.45;;;5.07;;
21084;SDS011;34247;50.064;19.970;2023-03-30T04:12:12;6.13;;;4.40;;
21084;SDS011;34247;50.064;19.970;2023-03-30T04:13:18;13.30;;;5.50;;
21084;SDS011;34247;50.064;19.970;2023-03-30T04:14:23;8.48;;;5.60;;
21084;SDS011;34247;50.064;19.970;2023-03-30T04:15:27;10.95;;;4.70;;
21084;SDS011;34247;50.064;19.970;2023-03-30T04:16:31;8.35;;;3.80;;
21084;SDS011;34247;50.064;19.970;2023-03-30T04:17:35;11.73;;;5.10;;
21084;SDS011;34247;50.064;19.970;2023-03-30T04:18:39;10.15;;;4.90;;
21084;SDS011;34247;50.064;19.970;2023-03-30T04:19:43;6.15;;;4.65;;
21084;SDS011;34247;50.064;19.970;2023-03-30T04:20:47;11.15;;;5.43;;
21084;SDS011;34247;50.064;19.970;2023-03-30T04:21:52;8.15;;;5.90;;
21084;SDS011;34247;50.064;19.970;2023-03-30T04:22:57;10.75;;;5.88;;
21084;SDS011;34247;50.064;19.970;2023-03-30T04:24:03;8.38;;;5.43;;
21084;SDS011;34247;50.064;19.970;2023-03-30T04:25:15;9.95;;;5.57;;
21084;SDS011;34247;50.064;19.970;2023-03-30T04:26:24;12.65;;;6.07;;
21084;SDS011;34247;50.064;19.970;2023-03-30T04:27:30;10.18;;;5.25;;
21084;SDS011;34247;50.064;19.970;2023-03-30T04:28:34;7.03;;;5.18;;
21084;SDS011;34247;50.064;19.970;2023-03-30T04:29:38;13.60;;;6.28;;
21084;SDS011;34247;50.064;19.970;2023-03-30T04:30:42;9.88;;;6.07;;
21084;SDS011;34247;50.064;19.970;2023-03-30T04:31:47;8.82;;;5.32;;
21084;SDS011;34247;50.064;19.970;2023-03-30T04:32:52;14.85;;;7.75;;
21084;SDS011;34247;50.064;19.970;2023-03-30T04:34:07;23.30;;;8.02;;
21084;SDS011;34247;50.064;19.970;2023-03-30T04:35:14;27.02;;;9.60;;
21084;SDS011;34247;50.064;19.970;2023-03-30T04:36:19;30.90;;;12.40;;
21084;SDS011;34247;50.064;19.970;2023-03-30T04:37:23;26.65;;;11.27;;
21084;SDS011;34247;50.064;19.970;2023-03-30T04:38:32;23.30;;;10.15;;
21084;SDS011;34247;50.064;19.970;2023-03-30T04:39:38;12.75;;;7.70;;
21084;SDS011;34247;50.064;19.970;2023-03-30T04:40:43;13.52;;;6.68;;
21084;SDS011;34247;50.064;19.970;2023-03-30T04:41:47;12.10;;;7.13;;
21084;SDS011;34247;50.064;19.970;2023-03-30T04:42:53;12.45;;;6.07;;
21084;SDS011;34247;50.064;19.970;2023-03-30T04:44:14;12.18;;;7.35;;
21084;SDS011;34247;50.064;19.970;2023-03-30T04:45:22;13.93;;;6.22;;
21084;SDS011;34247;50.064;19.970;2023-03-30T04:46:26;8.55;;;5.13;;
21084;SDS011;34247;50.064;19.970;2023-03-30T04:47:33;4.97;;;4.18;;
21084;SDS011;34247;50.064;19.970;2023-03-30T04:48:37;9.88;;;6.15;;
21084;SDS011;34247;50.064;19.970;2023-03-30T04:49:41;12.35;;;6.28;;
21084;SDS011;34247;50.064;19.970;2023-03-30T04:50:45;11.30;;;5.32;;
21084;SDS011;34247;50.064;19.970;2023-03-30T04:51:51;7.88;;;5.53;;
21084;SDS011;34247;50.064;19.970;2023-03-30T04:52:56;7.82;;;5.60;;
21084;SDS011;34247;50.064;19.970;2023-03-30T04:54:00;8.43;;;5.85;;
21084;SDS011;34247;50.064;19.970;2023-03-30T04:55:13;7.22;;;6.15;;
21084;SDS011;34247;50.064;19.970;2023-03-30T04:56:17;8.60;;;5.72;;
21084;SDS011;34247;50.064;19.970;2023-03-30T04:57:21;9.32;;;6.68;;
21084;SDS011;34247;50.064;19.970;2023-03-30T04:58:25;11.02;;;6.10;;
21084;SDS011;34247;50.064;19.970;2023-03-30T04:59:29;19.17;;;5.68;;
21084;SDS011;34247;50.064;19.970;2023-03-30T05:00:33;18.02;;;4.85;;
21084;SDS011;34247;50.064;19.970;2023-03-30T05:01:36;10.18;;;6.20;;
21084;SDS011;34247;50.064;19.970;2023-03-30T05:02:43;8.70;;;5.72;;
21084;SDS011;34247;50.064;19.970;2023-03-30T05:03:47;10.70;;;5.53;;
21084;SDS011;34247;50.064;19.970;2023-03-30T05:04:51;6.35;;;4.35;;
21084;SDS011;34247;50.064;19.970;2023-03-30T05:05:55;17.35;;;5.82;;
21084;SDS011;34247;50.064;19.970;2023-03-30T05:06:59;12.77;;;5.03;;
21084;SDS011;34247;50.064;19.970;2023-03-30T05:08:04;9.32;;;6.00;;
21084;SDS011;34247;50.064;19.970;2023-03-30T05:09:14;11.75;;;5.70;;
21084;SDS011;34247;50.064;19.970;2023-03-30T05:10:18;8.32;;;5.43;;
21084;SDS011;34247;50.064;19.970;2023-03-30T05:11:22;4.75;;;4.38;;
21084;SDS011;34247;50.064;19.970;2023-03-30T05:12:26;13.48;;;5.25;;
21084;SDS011;34247;50.064;19.970;2023-03-30T05:13:30;5.75;;;4.13;;
21084;SDS011;34247;50.064;19.970;2023-03-30T05:14:34;13.38;;;4.93;;
21084;SDS011;34247;50.064;19.970;2023-03-30T05:15:38;10.48;;;4.28;;
21084;SDS011;34247;50.064;19.970;2023-03-30T05:16:43;12.40;;;4.82;;
21084;SDS011;34247;50.064;19.970;2023-03-30T05:17:47;16.83;;;6.57;;
21084;SDS011;34247;50.064;19.970;2023-03-30T05:18:51;5.95;;;4.13;;
21084;SDS011;34247;50.064;19.970;2023-03-30T05:19:57;10.25;;;3.75;;
21084;SDS011;34247;50.064;19.970;2023-03-30T05:21:01;6.00;;;4.13;;
21084;SDS011;34247;50.064;19.970;2023-03-30T05:22:11;5.88;;;4.88;;
21084;SDS011;34247;50.064;19.970;2023-03-30T05:23:18;7.78;;;4.53;;
21084;SDS011;34247;50.064;19.970;2023-03-30T05:24:23;10.60;;;5.15;;
21084;SDS011;34247;50.064;19.970;2023-03-30T05:25:28;5.40;;;4.15;;
21084;SDS011;34247;50.064;19.970;2023-03-30T05:26:32;10.93;;;4.40;;
21084;SDS011;34247;50.064;19.970;2023-03-30T05:27:37;5.13;;;3.90;;
21084;SDS011;34247;50.064;19.970;2023-03-30T05:28:41;8.50;;;3.60;;
21084;SDS011;34247;50.064;19.970;2023-03-30T05:29:45;6.30;;;4.20;;
21084;SDS011;34247;50.064;19.970;2023-03-30T05:30:52;8.43;;;5.30;;
21084;SDS011;34247;50.064;19.970;2023-03-30T05:31:57;6.93;;;4.15;;
21084;SDS011;34247;50.064;19.970;2023-03-30T05:33:02;4.57;;;3.88;;
21084;SDS011;34247;50.064;19.970;2023-03-30T05:34:18;9.98;;;4.80;;
21084;SDS011;34247;50.064;19.970;2023-03-30T05:35:22;10.82;;;5.28;;
21084;SDS011;34247;50.064;19.970;2023-03-30T05:36:26;8.27;;;4.13;;
21084;SDS011;34247;50.064;19.970;2023-03-30T05:37:31;37.20;;;5.57;;
21084;SDS011;34247;50.064;19.970;2023-03-30T05:38:35;7.35;;;5.55;;
21084;SDS011;34247;50.064;19.970;2023-03-30T05:39:39;10.65;;;5.00;;
21084;SDS011;34247;50.064;19.970;2023-03-30T05:40:43;6.75;;;4.15;;
21084;SDS011;34247;50.064;19.970;2023-03-30T05:41:48;7.72;;;4.40;;
21084;SDS011;34247;50.064;19.970;2023-03-30T05:42:52;8.82;;;4.43;;
21084;SDS011;34247;50.064;19.970;2023-03-30T05:43:57;6.22;;;4.03;;
21084;SDS011;34247;50.064;19.970;2023-03-30T05:45:01;4.78;;;3.88;;
21084;SDS011;34247;50.064;19.970;2023-03-30T05:46:09;6.38;;;4.13;;
21084;SDS011;34247;50.064;19.970;2023-03-30T05:47:16;5.10;;;3.55;;
21084;SDS011;34247;50.064;19.970;2023-03-30T05:48:20;8.23;;;4.07;;
21084;SDS011;34247;50.064;19.970;2023-03-30T05:49:24;6.28;;;4.35;;
21084;SDS011;34247;50.064;19.970;2023-03-30T05:50:28;5.82;;;4.40;;
21084;SDS011;34247;50.064;19.970;2023-03-30T05:51:32;7.35;;;4.00;;
21084;SDS011;34247;50.064;19.970;2023-03-30T05:52:36;5.95;;;4.30;;
21084;SDS011;34247;50.064;19.970;2023-03-30T05:53:40;11.13;;;4.63;;
21084;SDS011;34247;50.064;19.970;2023-03-30T05:54:44;4.40;;;4.00;;
21084;SDS011;34247;50.064;19.970;2023-03-30T05:55:48;4.25;;;2.95;;
21084;SDS011;34247;50.064;19.970;2023-03-30T05:56:52;4.05;;;3.03;;
21084;SDS011;34247;50.064;19.970;2023-03-30T05:57:57;13.73;;;4.57;;
21084;SDS011;34247;50.064;19.970;2023-03-30T05:59:01;6.18;;;3.38;;
21084;SDS011;34247;50.064;19.970;2023-03-30T06:00:14;3.67;;;3.42;;
21084;SDS011;34247;50.064;19.970;2023-03-30T06:01:19;4.38;;;2.63;;
21084;SDS011;34247;50.064;19.970;2023-03-30T06:02:23;3.33;;;3.10;;
21084;SDS011;34247;50.064;19.970;2023-03-30T06:03:27;5.82;;;2.97;;
21084;SDS011;34247;50.064;19.970;2023-03-30T06:04:31;4.50;;;3.63;;
21084;SDS011;34247;50.064;19.970;2023-03-30T06:05:36;14.98;;;4.88;;
21084;SDS011;34247;50.064;19.970;2023-03-30T06:06:41;14.02;;;3.10;;
21084;SDS011;34247;50.064;19.970;2023-03-30T06:07:45;6.07;;;3.58;;
21084;SDS011;34247;50.064;19.970;2023-03-30T06:08:50;3.45;;;3.20;;
21084;SDS011;34247;50.064;19.970;2023-03-30T06:09:54;3.65;;;3.35;;
21084;SDS011;34247;50.064;19.970;2023-03-30T06:11:01;2.35;;;2.13;;
21084;SDS011;34247;50.064;19.970;2023-03-30T06:12:09;6.78;;;3.33;;
21084;SDS011;34247;50.064;19.970;2023-03-30T06:13:18;8.05;;;2.08;;
21084;SDS011;34247;50.064;19.970;2023-03-30T06:14:22;3.75;;;2.88;;
21084;SDS011;34247;50.064;19.970;2023-03-30T06:15:26;2.53;;;2.33;;
21084;SDS011;34247;50.064;19.970;2023-03-30T06:16:31;2.20;;;2.10;;
21084;SDS011;34247;50.064;19.970;2023-03-30T06:17:35;3.05;;;2.30;;
21084;SDS011;34247;50.064;19.970;2023-03-30T06:18:42;3.25;;;2.63;;
21084;SDS011;34247;50.064;19.970;2023-03-30T06:19:46;5.40;;;3.03;;
21084;SDS011;34247;50.064;19.970;2023-03-30T06:20:50;2.72;;;2.53;;
21084;SDS011;34247;50.064;19.970;2023-03-30T06:21:54;4.82;;;2.72;;
21084;SDS011;34247;50.064;19.970;2023-03-30T06:22:58;2.40;;;2.10;;
21084;SDS011;34247;50.064;19.970;2023-03-30T06:24:02;4.47;;;2.45;;
21084;SDS011;34247;50.064;19.970;2023-03-30T06:25:14;3.05;;;2.75;;
21084;SDS011;34247;50.064;19.970;2023-03-30T06:26:19;2.80;;;2.15;;
21084;SDS011;34247;50.064;19.970;2023-03-30T06:27:23;2.63;;;2.20;;
21084;SDS011;34247;50.064;19.970;2023-03-30T06:28:27;5.47;;;2.53;;
21084;SDS011;34247;50.064;19.970;2023-03-30T06:29:31;2.80;;;2.60;;
21084;SDS011;34247;50.064;19.970;2023-03-30T06:30:35;4.03;;;2.63;;
21084;SDS011;34247;50.064;19.970;2023-03-30T06:31:41;1.88;;;1.77;;
21084;SDS011;34247;50.064;19.970;2023-03-30T06:32:46;2.22;;;1.98;;
21084;SDS011;34247;50.064;19.970;2023-03-30T06:33:49;3.58;;;2.60;;
21084;SDS011;34247;50.064;19.970;2023-03-30T06:34:54;3.25;;;2.10;;
21084;SDS011;34247;50.064;19.970;2023-03-30T06:35:58;2.78;;;2.38;;
21084;SDS011;34247;50.064;19.970;2023-03-30T06:37:05;3.20;;;2.97;;
21084;SDS011;34247;50.064;19.970;2023-03-30T06:38:14;4.60;;;2.53;;
21084;SDS011;34247;50.064;19.970;2023-03-30T06:39:20;2.33;;;2.10;;
21084;SDS011;34247;50.064;19.970;2023-03-30T06:40:24;2.88;;;2.67;;
21084;SDS011;34247;50.064;19.970;2023-03-30T06:41:28;2.08;;;1.90;;
21084;SDS011;34247;50.064;19.970;2023-03-30T06:42:32;2.72;;;1.90;;
21084;SDS011;34247;50.064;19.970;2023-03-30T06:43:37;6.47;;;3.20;;
21084;SDS011;34247;50.064;19.970;2023-03-30T06:44:41;5.28;;;2.33;;
21084;SDS011;34247;50.064;19.970;2023-03-30T06:45:49;4.97;;;2.53;;
21084;SDS011;34247;50.064;19.970;2023-03-30T06:46:59;3.97;;;2.33;;
21084;SDS011;34247;50.064;19.970;2023-03-30T06:48:03;4.53;;;1.88;;
21084;SDS011;34247;50.064;19.970;2023-03-30T06:49:16;1.90;;;1.80;;
21084;SDS011;34247;50.064;19.970;2023-03-30T06:50:24;12.55;;;3.28;;
21084;SDS011;34247;50.064;19.970;2023-03-30T06:51:28;3.70;;;3.28;;
21084;SDS011;34247;50.064;19.970;2023-03-30T06:52:33;6.00;;;2.92;;
21084;SDS011;34247;50.064;19.970;2023-03-30T06:53:39;1.50;;;1.40;;
21084;SDS011;34247;50.064;19.970;2023-03-30T06:54:43;2.22;;;2.10;;
21084;SDS011;34247;50.064;19.970;2023-03-30T06:56:14;5.80;;;2.38;;
21084;SDS011;34247;50.064;19.970;2023-03-30T06:57:16;2.92;;;2.58;;
21084;SDS011;34247;50.064;19.970;2023-03-30T06:58:20;3.22;;;2.17;;
21084;SDS011;34247;50.064;19.970;2023-03-30T06:59:26;3.92;;;2.30;;
21084;SDS011;34247;50.064;19.970;2023-03-30T07:00:30;6.00;;;2.08;;
21084;SDS011;34247;50.064;19.970;2023-03-30T07:01:34;4.25;;;2.28;;
21084;SDS011;34247;50.064;19.970;2023-03-30T07:02:40;2.50;;;2.30;;
21084;SDS011;34247;50.064;19.970;2023-03-30T07:03:45;3.72;;;2.60;;
21084;SDS011;34247;50.064;19.970;2023-03-30T07:04:50;3.45;;;2.20;;
21084;SDS011;34247;50.064;19.970;2023-03-30T07:05:54;3.63;;;2.35;;
21084;SDS011;34247;50.064;19.970;2023-03-30T07:06:58;10.55;;;2.72;;
21084;SDS011;34247;50.064;19.970;2023-03-30T07:08:02;13.70;;;3.30;;
21084;SDS011;34247;50.064;19.970;2023-03-30T07:09:11;3.60;;;3.30;;
21084;SDS011;34247;50.064;19.970;2023-03-30T07:10:15;4.30;;;2.40;;
21084;SDS011;34247;50.064;19.970;2023-03-30T07:11:20;3.92;;;3.25;;
21084;SDS011;34247;50.064;19.970;2023-03-30T07:12:25;7.65;;;4.45;;
21084;SDS011;34247;50.064;19.970;2023-03-30T07:13:29;8.60;;;2.80;;
21084;SDS011;34247;50.064;19.970;2023-03-30T07:14:33;6.38;;;2.83;;
21084;SDS011;34247;50.064;19.970;2023-03-30T07:15:38;9.32;;;3.47;;
21084;SDS011;34247;50.064;19.970;2023-03-30T07:16:42;2.85;;;2.65;;